Time;durP1;ratioP1;P1;durP2;ratioP2;P2;SDS_P1;SDS_P2;PMS_P1;PMS_P2;Temp;Humidity;BMP_temperature;BMP_pressure;BME280_temperature;BME280_humidity;BME280_pressure;Samples;Min_cycle;Max_cycle;Signal;HPM_P1;HPM_P2
2022/01/20 00:46:22;;;;;;;27.02;14.47;;;;;;;-0.30;59.91;94991.40;834473;71;33293;-81
2022/01/20 01:01:22;;;;;;;23.32;14.75;;;;;;;-0.39;60.32;94976.66;822838;71;29883;-78
2022/01/20 01:16:21;;;;;;;25.57;14.00;;;;;;;-0.68;60.43;94972.34;828106;71;31490;-79
2022/01/20 01:31:40;;;;;;;21.35;13.90;;;;;;;-0.58;60.34;94959.53;833754;71;32751;-77
2022/01/20 01:46:10;;;;;;;28.75;16.97;;;;;;;-0.65;61.44;94944.08;828215;71;29728;-77
2022/01/20 02:01:25;;;;;;;22.27;12.75;;;;;;;-0.66;60.75;94920.61;820986;71;33646;-78
2022/01/20 02:31:15;;;;;;;26.80;12.47;;;;;;;-0.85;60.81;94893.46;827446;71;32732;-77
2022/01/20 02:46:10;;;;;;;21.93;12.85;;;;;;;-0.90;60.96;94883.48;828205;71;30244;-78
2022/01/20 03:01:09;;;;;;;18.48;13.00;;;;;;;-0.94;61.26;94881.02;834068;71;29797;-80
2022/01/20 03:16:09;;;;;;;30.43;14.30;;;;;;;-0.96;61.46;94875.30;827659;71;29753;-78
2022/01/20 03:31:13;;;;;;;17.17;11.18;;;;;;;-1.03;61.01;94870.19;820450;71;32544;-77
2022/01/20 03:46:16;;;;;;;22.98;12.60;;;;;;;-1.12;61.24;94859.31;832845;71;32776;-80
2022/01/20 04:01:15;;;;;;;19.07;12.45;;;;;;;-1.15;61.09;94846.08;827742;71;32768;-79
2022/01/20 04:16:14;;;;;;;23.77;13.50;;;;;;;-1.24;62.18;94842.45;828149;71;30301;-77
2022/01/20 04:31:08;;;;;;;24.27;14.33;;;;;;;-1.25;62.25;94835.72;833910;71;30213;-78
2022/01/20 04:46:29;;;;;;;32.75;16.45;;;;;;;-1.20;62.07;94838.95;827302;71;33192;-78
2022/01/20 05:01:15;;;;;;;31.10;17.00;;;;;;;-1.28;62.02;94834.04;827327;71;32656;-78
2022/01/20 05:16:56;;;;;;;;;;;;;;;;;;;;;
2022/01/20 05:31:09;;;;;;;30.52;18.07;;;;;;;-1.36;62.25;94837.63;828166;71;30322;-75
2022/01/20 05:46:09;;;;;;;25.50;15.53;;;;;;;-1.48;62.14;94835.41;834010;71;29730;-75
2022/01/20 06:01:16;;;;;;;27.70;15.45;;;;;;;-1.62;61.49;94834.69;827194;71;32800;-75
2022/01/20 06:16:15;;;;;;;27.25;15.35;;;;;;;-1.58;61.34;94842.77;827100;71;32782;-78
2022/01/20 06:31:11;;;;;;;28.25;17.20;;;;;;;-0.07;58.72;94847.72;834372;71;30177;-77
2022/01/20 06:46:09;;;;;;;30.05;16.80;;;;;;;1.47;54.45;94842.34;828212;71;30342;-78
2022/01/20 07:01:20;;;;;;;32.45;18.95;;;;;;;2.20;51.33;94817.86;827484;71;33133;-77
2022/01/20 07:16:09;;;;;;;26.68;16.12;;;;;;;3.25;49.40;94831.27;828213;71;30238;-77
2022/01/20 07:31:16;;;;;;;22.70;15.25;;;;;;;3.05;48.23;94828.59;822711;71;32707;-76
2022/01/20 07:46:15;;;;;;;25.95;15.13;;;;;;;3.85;45.94;94809.91;820621;71;33314;-76
2022/01/20 08:01:12;;;;;;;26.75;15.78;;;;;;;4.35;45.44;94817.36;822980;71;30418;-78
2022/01/20 08:16:08;;;;;;;22.65;15.15;;;;;;;5.49;46.33;94832.64;826809;71;29801;-77
2022/01/20 08:31:08;;;;;;;23.80;14.98;;;;;;;5.56;42.55;94821.52;828123;71;30303;-77
2022/01/20 08:46:11;;;;;;;24.57;14.55;;;;;;;6.52;41.87;94808.11;821142;70;29804;-75
2022/01/20 09:01:09;;;;;;;26.80;16.35;;;;;;;7.83;39.55;94796.12;827902;71;30742;-76
2022/01/20 09:16:09;;;;;;;25.55;17.42;;;;;;;9.18;37.13;94781.58;834079;71;30334;-76
2022/01/20 09:31:14;;;;;;;34.55;20.02;;;;;;;9.80;35.75;94772.77;827326;71;32708;-77
2022/01/20 09:46:14;;;;;;;28.38;19.42;;;;;;;11.00;34.38;94745.77;833683;71;33132;-76
2022/01/20 10:01:17;;;;;;;32.10;19.25;;;;;;;11.68;33.11;94714.28;828366;71;30277;-79
2022/01/20 10:16:14;;;;;;;32.58;21.95;;;;;;;12.01;32.78;94679.54;823512;71;30143;-77
2022/01/20 10:31:11;;;;;;;38.33;22.15;;;;;;;12.84;30.63;94649.72;821850;71;29770;-78
2022/01/20 10:46:16;;;;;;;30.00;18.30;;;;;;;12.30;31.30;94629.79;821674;71;29789;-77
2022/01/20 11:01:11;;;;;;;28.62;18.40;;;;;;;12.48;31.31;94602.33;823459;71;29756;-78
2022/01/20 11:16:10;;;;;;;9.90;7.03;;;;;;;13.32;27.75;94577.22;828470;71;30167;-75
2022/01/20 11:31:14;;;;;;;9.65;4.42;;;;;;;14.20;24.33;94549.50;828192;71;33071;-77
2022/01/20 11:46:15;;;;;;;4.55;4.10;;;;;;;14.97;23.64;94550.39;828065;71;30304;-80
2022/01/20 12:01:10;;;;;;;5.20;3.70;;;;;;;14.86;23.25;94536.70;828145;71;29384;-76
2022/01/20 12:16:09;;;;;;;7.22;4.85;;;;;;;14.61;23.80;94525.09;827885;71;30659;-76
2022/01/20 12:31:14;;;;;;;5.80;4.22;;;;;;;14.20;24.29;94532.91;827400;71;33205;-77
2022/01/20 12:46:20;;;;;;;5.45;4.30;;;;;;;13.67;25.30;94528.61;827272;71;32774;-75
2022/01/20 13:01:09;;;;;;;4.75;4.25;;;;;;;13.13;26.34;94515.49;833844;71;29721;-76
2022/01/20 13:16:14;;;;;;;4.40;4.00;;;;;;;12.28;27.67;94502.25;833908;71;29829;-76
2022/01/20 13:31:16;;;;;;;6.83;4.08;;;;;;;11.58;28.92;94493.16;833880;71;32544;-75
2022/01/20 13:46:10;;;;;;;6.50;3.60;;;;;;;10.75;30.31;94487.85;828137;71;29428;-77
2022/01/20 14:01:12;;;;;;;5.25;3.98;;;;;;;9.92;31.86;94480.17;828145;71;30258;-76
2022/01/20 14:16:09;;;;;;;4.55;3.92;;;;;;;9.15;33.13;94476.64;828072;71;30780;-77
2022/01/20 14:31:09;;;;;;;5.55;3.90;;;;;;;8.49;33.96;94461.59;828171;71;30642;-78
2022/01/20 14:46:10;;;;;;;8.38;5.30;;;;;;;7.99;34.95;94462.98;833970;71;30842;-77
2022/01/20 15:01:12;;;;;;;6.15;4.10;;;;;;;7.64;35.86;94447.77;828112;71;32005;-75
2022/01/20 15:16:08;;;;;;;7.28;4.87;;;;;;;7.39;36.65;94425.97;833775;71;29647;-77
2022/01/20 15:31:39;;;;;;;7.65;5.80;;;;;;;7.20;38.71;94410.67;833932;71;32775;-77
2022/01/20 16:16:17;;;;;;;3.98;3.27;;;;;;;6.64;41.35;94352.20;834172;71;33410;-80
